sensor_id;sensor_type;location;lat;lon;timestamp;P1;durP1;ratioP1;P2;durP2;ratioP2
47531;SDS011;33273;52.254;7.988;2023-10-13T06:31:21;32.30;;;21.17;;
47531;SDS011;33273;52.254;7.988;2023-10-13T06:33:47;31.70;;;22.80;;
47531;SDS011;33273;52.254;7.988;2023-10-13T06:36:13;35.30;;;23.50;;
47531;SDS011;33273;52.254;7.988;2023-10-13T06:38:39;33.10;;;24.08;;
47531;SDS011;33273;52.254;7.988;2023-10-13T06:41:05;38.03;;;24.33;;
47531;SDS011;33273;52.254;7.988;2023-10-13T06:43:32;32.13;;;22.77;;
47531;SDS011;33273;52.254;7.988;2023-10-13T06:46:11;34.15;;;23.85;;
47531;SDS011;33273;52.254;7.988;2023-10-13T06:48:48;33.03;;;21.08;;
47531;SDS011;33273;52.254;7.988;2023-10-13T06:51:18;25.58;;;19.63;;
47531;SDS011;33273;52.254;7.988;2023-10-13T06:53:47;27.27;;;19.15;;
47531;SDS011;33273;52.254;7.988;2023-10-13T06:58:46;22.73;;;16.90;;
47531;SDS011;33273;52.254;7.988;2023-10-13T07:01:12;23.15;;;16.30;;
47531;SDS011;33273;52.254;7.988;2023-10-13T07:03:41;19.42;;;14.75;;
47531;SDS011;33273;52.254;7.988;2023-10-13T07:06:08;21.67;;;17.30;;
47531;SDS011;33273;52.254;7.988;2023-10-13T07:08:43;18.45;;;14.52;;
47531;SDS011;33273;52.254;7.988;2023-10-13T07:11:26;22.10;;;15.07;;
47531;SDS011;33273;52.254;7.988;2023-10-13T07:13:59;19.58;;;14.93;;
47531;SDS011;33273;52.254;7.988;2023-10-13T07:16:35;18.45;;;14.98;;
47531;SDS011;33273;52.254;7.988;2023-10-13T07:19:35;19.95;;;15.35;;
47531;SDS011;33273;52.254;7.988;2023-10-13T07:22:10;23.37;;;15.03;;
47531;SDS011;33273;52.254;7.988;2023-10-13T07:24:46;19.02;;;14.32;;
47531;SDS011;33273;52.254;7.988;2023-10-13T07:27:21;23.45;;;15.93;;
47531;SDS011;33273;52.254;7.988;2023-10-13T07:29:51;18.55;;;15.13;;
47531;SDS011;33273;52.254;7.988;2023-10-13T07:32:31;17.50;;;14.43;;
47531;SDS011;33273;52.254;7.988;2023-10-13T07:34:59;19.13;;;14.30;;
47531;SDS011;33273;52.254;7.988;2023-10-13T07:37:35;20.00;;;15.25;;
47531;SDS011;33273;52.254;7.988;2023-10-13T07:40:06;19.63;;;14.73;;
47531;SDS011;33273;52.254;7.988;2023-10-13T07:42:58;17.27;;;13.63;;
47531;SDS011;33273;52.254;7.988;2023-10-13T07:45:28;15.98;;;13.60;;
47531;SDS011;33273;52.254;7.988;2023-10-13T07:48:04;18.77;;;12.27;;
47531;SDS011;33273;52.254;7.988;2023-10-13T07:50:42;17.15;;;12.23;;
47531;SDS011;33273;52.254;7.988;2023-10-13T07:53:09;13.40;;;11.38;;
47531;SDS011;33273;52.254;7.988;2023-10-13T07:55:50;16.00;;;9.93;;
47531;SDS011;33273;52.254;7.988;2023-10-13T07:58:27;13.88;;;11.07;;
47531;SDS011;33273;52.254;7.988;2023-10-13T08:00:53;16.83;;;10.77;;
47531;SDS011;33273;52.254;7.988;2023-10-13T08:03:42;16.45;;;11.25;;
47531;SDS011;33273;52.254;7.988;2023-10-13T08:06:15;15.80;;;11.10;;
47531;SDS011;33273;52.254;7.988;2023-10-13T08:08:41;13.43;;;10.73;;
47531;SDS011;33273;52.254;7.988;2023-10-13T08:11:09;14.57;;;11.13;;
47531;SDS011;33273;52.254;7.988;2023-10-13T08:13:57;14.38;;;9.90;;
47531;SDS011;33273;52.254;7.988;2023-10-13T08:16:24;12.20;;;9.73;;
47531;SDS011;33273;52.254;7.988;2023-10-13T08:19:11;12.35;;;9.27;;
47531;SDS011;33273;52.254;7.988;2023-10-13T08:21:40;17.13;;;11.50;;
47531;SDS011;33273;52.254;7.988;2023-10-13T08:24:18;14.68;;;9.57;;
47531;SDS011;33273;52.254;7.988;2023-10-13T08:26:53;13.20;;;10.27;;
47531;SDS011;33273;52.254;7.988;2023-10-13T08:29:37;16.80;;;11.38;;
47531;SDS011;33273;52.254;7.988;2023-10-13T08:32:21;15.80;;;10.70;;
47531;SDS011;33273;52.254;7.988;2023-10-13T08:34:54;13.57;;;10.43;;
47531;SDS011;33273;52.254;7.988;2023-10-13T08:37:21;13.90;;;10.40;;
47531;SDS011;33273;52.254;7.988;2023-10-13T08:39:47;15.30;;;10.40;;
47531;SDS011;33273;52.254;7.988;2023-10-13T08:42:44;14.77;;;11.23;;
47531;SDS011;33273;52.254;7.988;2023-10-13T08:47:52;13.98;;;11.10;;
47531;SDS011;33273;52.254;7.988;2023-10-13T08:50:33;16.77;;;11.57;;
47531;SDS011;33273;52.254;7.988;2023-10-13T08:53:31;14.35;;;9.63;;
47531;SDS011;33273;52.254;7.988;2023-10-13T08:56:20;17.52;;;9.98;;
47531;SDS011;33273;52.254;7.988;2023-10-13T08:58:59;15.32;;;9.40;;
47531;SDS011;33273;52.254;7.988;2023-10-13T09:01:34;14.10;;;7.85;;
47531;SDS011;33273;52.254;7.988;2023-10-13T09:04:19;14.50;;;7.53;;
47531;SDS011;33273;52.254;7.988;2023-10-13T09:06:53;15.77;;;7.63;;
47531;SDS011;33273;52.254;7.988;2023-10-13T09:12:26;12.10;;;5.90;;
47531;SDS011;33273;52.254;7.988;2023-10-13T09:14:59;12.13;;;5.80;;
47531;SDS011;33273;52.254;7.988;2023-10-13T09:17:42;13.05;;;5.85;;
47531;SDS011;33273;52.254;7.988;2023-10-13T09:20:14;11.20;;;6.15;;
47531;SDS011;33273;52.254;7.988;2023-10-13T09:22:49;11.88;;;5.72;;
47531;SDS011;33273;52.254;7.988;2023-10-13T09:25:45;12.90;;;6.25;;
47531;SDS011;33273;52.254;7.988;2023-10-13T09:28:23;10.45;;;6.53;;
47531;SDS011;33273;52.254;7.988;2023-10-13T09:30:53;12.93;;;6.18;;
47531;SDS011;33273;52.254;7.988;2023-10-13T09:33:27;12.30;;;6.40;;
47531;SDS011;33273;52.254;7.988;2023-10-13T09:35:58;12.27;;;6.93;;
47531;SDS011;33273;52.254;7.988;2023-10-13T09:38:27;15.48;;;6.32;;
47531;SDS011;33273;52.254;7.988;2023-10-13T09:40:54;10.50;;;5.97;;
47531;SDS011;33273;52.254;7.988;2023-10-13T09:43:23;11.45;;;6.72;;
47531;SDS011;33273;52.254;7.988;2023-10-13T09:45:50;12.20;;;6.13;;
47531;SDS011;33273;52.254;7.988;2023-10-13T09:48:37;9.57;;;5.97;;
47531;SDS011;33273;52.254;7.988;2023-10-13T09:51:14;14.70;;;6.13;;
47531;SDS011;33273;52.254;7.988;2023-10-13T09:59:20;15.00;;;5.43;;
47531;SDS011;33273;52.254;7.988;2023-10-13T10:02:00;13.00;;;5.85;;
47531;SDS011;33273;52.254;7.988;2023-10-13T10:04:33;11.52;;;5.78;;
47531;SDS011;33273;52.254;7.988;2023-10-13T10:07:10;13.23;;;6.22;;
47531;SDS011;33273;52.254;7.988;2023-10-13T10:09:36;10.90;;;5.55;;
47531;SDS011;33273;52.254;7.988;2023-10-13T10:18:01;14.75;;;5.72;;
47531;SDS011;33273;52.254;7.988;2023-10-13T10:22:58;13.15;;;6.30;;
47531;SDS011;33273;52.254;7.988;2023-10-13T10:25:31;13.68;;;5.55;;
47531;SDS011;33273;52.254;7.988;2023-10-13T10:28:07;12.48;;;5.53;;
47531;SDS011;33273;52.254;7.988;2023-10-13T10:30:34;10.00;;;5.35;;
47531;SDS011;33273;52.254;7.988;2023-10-13T10:33:04;12.57;;;5.93;;
47531;SDS011;33273;52.254;7.988;2023-10-13T10:35:41;11.23;;;5.82;;
47531;SDS011;33273;52.254;7.988;2023-10-13T10:38:12;10.85;;;6.05;;
47531;SDS011;33273;52.254;7.988;2023-10-13T10:40:53;14.90;;;5.95;;
47531;SDS011;33273;52.254;7.988;2023-10-13T10:46:26;14.02;;;5.90;;
47531;SDS011;33273;52.254;7.988;2023-10-13T10:48:55;13.15;;;5.13;;
47531;SDS011;33273;52.254;7.988;2023-10-13T10:51:27;10.63;;;5.20;;
47531;SDS011;33273;52.254;7.988;2023-10-13T10:53:57;10.27;;;5.85;;
47531;SDS011;33273;52.254;7.988;2023-10-13T10:56:36;12.50;;;5.35;;
47531;SDS011;33273;52.254;7.988;2023-10-13T10:59:05;10.85;;;5.50;;
47531;SDS011;33273;52.254;7.988;2023-10-13T11:01:45;12.13;;;5.68;;
47531;SDS011;33273;52.254;7.988;2023-10-13T11:04:16;12.20;;;4.80;;
47531;SDS011;33273;52.254;7.988;2023-10-13T11:06:57;16.70;;;5.55;;
47531;SDS011;33273;52.254;7.988;2023-10-13T11:09:27;11.55;;;5.57;;
47531;SDS011;33273;52.254;7.988;2023-10-13T11:11:57;15.75;;;6.32;;
47531;SDS011;33273;52.254;7.988;2023-10-13T11:15:03;11.38;;;5.72;;
47531;SDS011;33273;52.254;7.988;2023-10-13T11:20:49;12.43;;;6.05;;
47531;SDS011;33273;52.254;7.988;2023-10-13T11:23:23;15.75;;;5.30;;
47531;SDS011;33273;52.254;7.988;2023-10-13T11:25:58;16.42;;;5.53;;
47531;SDS011;33273;52.254;7.988;2023-10-13T11:28:24;9.85;;;5.60;;
47531;SDS011;33273;52.254;7.988;2023-10-13T11:30:56;11.35;;;5.25;;
47531;SDS011;33273;52.254;7.988;2023-10-13T11:33:24;13.23;;;5.85;;
47531;SDS011;33273;52.254;7.988;2023-10-13T11:35:54;15.55;;;5.55;;
47531;SDS011;33273;52.254;7.988;2023-10-13T11:40:54;12.05;;;5.28;;
47531;SDS011;33273;52.254;7.988;2023-10-13T11:43:37;12.73;;;5.82;;
47531;SDS011;33273;52.254;7.988;2023-10-13T11:46:29;12.85;;;5.18;;
47531;SDS011;33273;52.254;7.988;2023-10-13T11:49:01;13.13;;;5.50;;
47531;SDS011;33273;52.254;7.988;2023-10-13T11:51:58;9.57;;;5.05;;
47531;SDS011;33273;52.254;7.988;2023-10-13T11:54:34;15.55;;;5.50;;
47531;SDS011;33273;52.254;7.988;2023-10-13T11:57:03;12.65;;;5.57;;
47531;SDS011;33273;52.254;7.988;2023-10-13T11:59:32;14.02;;;5.75;;
47531;SDS011;33273;52.254;7.988;2023-10-13T12:02:01;15.82;;;5.88;;
47531;SDS011;33273;52.254;7.988;2023-10-13T12:04:36;13.50;;;5.70;;
47531;SDS011;33273;52.254;7.988;2023-10-13T12:07:14;11.45;;;5.15;;
47531;SDS011;33273;52.254;7.988;2023-10-13T12:09:50;12.38;;;5.45;;
47531;SDS011;33273;52.254;7.988;2023-10-13T12:12:22;11.23;;;5.63;;
47531;SDS011;33273;52.254;7.988;2023-10-13T12:14:52;12.32;;;5.75;;
47531;SDS011;33273;52.254;7.988;2023-10-13T12:17:20;15.40;;;5.93;;
47531;SDS011;33273;52.254;7.988;2023-10-13T12:20:23;13.93;;;5.40;;
47531;SDS011;33273;52.254;7.988;2023-10-13T12:22:43;15.35;;;5.93;;
47531;SDS011;33273;52.254;7.988;2023-10-13T12:25:20;11.50;;;6.05;;
47531;SDS011;33273;52.254;7.988;2023-10-13T12:27:58;17.20;;;5.07;;
47531;SDS011;33273;52.254;7.988;2023-10-13T12:30:38;10.70;;;5.10;;
47531;SDS011;33273;52.254;7.988;2023-10-13T12:33:18;13.05;;;5.82;;
47531;SDS011;33273;52.254;7.988;2023-10-13T12:35:59;11.43;;;5.65;;
47531;SDS011;33273;52.254;7.988;2023-10-13T12:38:52;15.93;;;6.43;;
47531;SDS011;33273;52.254;7.988;2023-10-13T12:41:37;17.35;;;6.80;;
47531;SDS011;33273;52.254;7.988;2023-10-13T12:44:22;16.23;;;6.82;;
47531;SDS011;33273;52.254;7.988;2023-10-13T12:47:06;11.85;;;6.13;;
47531;SDS011;33273;52.254;7.988;2023-10-13T12:49:50;11.52;;;5.38;;
47531;SDS011;33273;52.254;7.988;2023-10-13T12:52:32;11.07;;;5.75;;
47531;SDS011;33273;52.254;7.988;2023-10-13T12:54:58;13.65;;;6.43;;
47531;SDS011;33273;52.254;7.988;2023-10-13T12:57:31;17.65;;;6.28;;
47531;SDS011;33273;52.254;7.988;2023-10-13T12:59:57;16.58;;;7.07;;
47531;SDS011;33273;52.254;7.988;2023-10-13T13:02:24;15.38;;;6.22;;
47531;SDS011;33273;52.254;7.988;2023-10-13T13:04:54;14.43;;;5.95;;
47531;SDS011;33273;52.254;7.988;2023-10-13T13:07:31;16.60;;;6.20;;
47531;SDS011;33273;52.254;7.988;2023-10-13T13:12:36;12.98;;;6.63;;
47531;SDS011;33273;52.254;7.988;2023-10-13T13:15:02;10.70;;;6.00;;
47531;SDS011;33273;52.254;7.988;2023-10-13T13:17:34;12.18;;;7.00;;
47531;SDS011;33273;52.254;7.988;2023-10-13T13:20:00;10.70;;;6.03;;
47531;SDS011;33273;52.254;7.988;2023-10-13T13:22:35;11.90;;;5.43;;
47531;SDS011;33273;52.254;7.988;2023-10-13T13:27:32;11.68;;;6.10;;
47531;SDS011;33273;52.254;7.988;2023-10-13T13:29:58;12.40;;;5.97;;
47531;SDS011;33273;52.254;7.988;2023-10-13T13:32:24;13.85;;;6.20;;
47531;SDS011;33273;52.254;7.988;2023-10-13T13:34:50;12.57;;;6.28;;
47531;SDS011;33273;52.254;7.988;2023-10-13T15:10:34;17.88;;;5.85;;
47531;SDS011;33273;52.254;7.988;2023-10-13T15:13:01;18.63;;;6.10;;
47531;SDS011;33273;52.254;7.988;2023-10-13T15:15:28;13.43;;;5.05;;
47531;SDS011;33273;52.254;7.988;2023-10-13T15:17:57;11.90;;;5.72;;
47531;SDS011;33273;52.254;7.988;2023-10-13T15:25:25;16.33;;;5.20;;
47531;SDS011;33273;52.254;7.988;2023-10-13T15:27:58;14.40;;;5.35;;
47531;SDS011;33273;52.254;7.988;2023-10-13T15:30:27;15.32;;;5.28;;
47531;SDS011;33273;52.254;7.988;2023-10-13T15:33:09;16.95;;;6.53;;
47531;SDS011;33273;52.254;7.988;2023-10-13T15:35:40;14.93;;;6.20;;
47531;SDS011;33273;52.254;7.988;2023-10-13T15:38:10;13.80;;;6.03;;
47531;SDS011;33273;52.254;7.988;2023-10-13T15:40:40;12.63;;;5.53;;
47531;SDS011;33273;52.254;7.988;2023-10-13T15:43:10;13.32;;;5.43;;
47531;SDS011;33273;52.254;7.988;2023-10-13T15:45:36;12.93;;;5.20;;
47531;SDS011;33273;52.254;7.988;2023-10-13T15:48:05;16.70;;;5.60;;
47531;SDS011;33273;52.254;7.988;2023-10-13T15:50:35;19.65;;;6.13;;
47531;SDS011;33273;52.254;7.988;2023-10-13T15:55:40;17.45;;;5.82;;
47531;SDS011;33273;52.254;7.988;2023-10-13T15:58:10;16.45;;;6.35;;
47531;SDS011;33273;52.254;7.988;2023-10-13T16:00:36;14.73;;;5.60;;
47531;SDS011;33273;52.254;7.988;2023-10-13T16:03:02;13.05;;;5.47;;
47531;SDS011;33273;52.254;7.988;2023-10-13T16:08:14;15.70;;;5.50;;
47531;SDS011;33273;52.254;7.988;2023-10-13T16:10:40;15.13;;;5.47;;
47531;SDS011;33273;52.254;7.988;2023-10-13T16:13:08;12.65;;;5.30;;
47531;SDS011;33273;52.254;7.988;2023-10-13T16:15:40;14.27;;;5.82;;
47531;SDS011;33273;52.254;7.988;2023-10-13T16:18:08;14.73;;;4.80;;
47531;SDS011;33273;52.254;7.988;2023-10-13T16:20:37;12.38;;;5.10;;
47531;SDS011;33273;52.254;7.988;2023-10-13T16:23:05;15.25;;;6.20;;
47531;SDS011;33273;52.254;7.988;2023-10-13T16:25:30;15.32;;;5.30;;
47531;SDS011;33273;52.254;7.988;2023-10-13T16:27:56;12.98;;;5.05;;
47531;SDS011;33273;52.254;7.988;2023-10-13T16:30:22;11.68;;;5.80;;
47531;SDS011;33273;52.254;7.988;2023-10-13T16:32:48;12.77;;;5.10;;
47531;SDS011;33273;52.254;7.988;2023-10-13T16:35:17;11.75;;;4.80;;
47531;SDS011;33273;52.254;7.988;2023-10-13T16:37:47;15.45;;;4.68;;
47531;SDS011;33273;52.254;7.988;2023-10-13T16:40:19;12.25;;;5.00;;
47531;SDS011;33273;52.254;7.988;2023-10-13T16:42:46;12.63;;;4.45;;
47531;SDS011;33273;52.254;7.988;2023-10-13T16:45:13;18.48;;;5.40;;
47531;SDS011;33273;52.254;7.988;2023-10-13T16:50:26;19.83;;;5.38;;
47531;SDS011;33273;52.254;7.988;2023-10-13T16:52:53;13.80;;;5.18;;
47531;SDS011;33273;52.254;7.988;2023-10-13T16:55:21;9.75;;;5.07;;
47531;SDS011;33273;52.254;7.988;2023-10-13T16:57:49;10.52;;;4.55;;
47531;SDS011;33273;52.254;7.988;2023-10-13T17:00:18;10.02;;;5.68;;
47531;SDS011;33273;52.254;7.988;2023-10-13T17:02:56;14.15;;;5.85;;
47531;SDS011;33273;52.254;7.988;2023-10-13T17:05:22;11.68;;;4.88;;
47531;SDS011;33273;52.254;7.988;2023-10-13T17:07:53;14.07;;;5.18;;
47531;SDS011;33273;52.254;7.988;2023-10-13T17:10:19;14.77;;;5.07;;
47531;SDS011;33273;52.254;7.988;2023-10-13T17:12:44;22.98;;;6.10;;
47531;SDS011;33273;52.254;7.988;2023-10-13T17:17:46;17.70;;;5.80;;
47531;SDS011;33273;52.254;7.988;2023-10-13T17:20:13;15.00;;;6.05;;
47531;SDS011;33273;52.254;7.988;2023-10-13T17:22:39;10.80;;;4.90;;
47531;SDS011;33273;52.254;7.988;2023-10-13T17:25:06;15.80;;;5.57;;
47531;SDS011;33273;52.254;7.988;2023-10-13T17:27:32;13.23;;;5.70;;
47531;SDS011;33273;52.254;7.988;2023-10-13T17:30:03;13.48;;;6.38;;
47531;SDS011;33273;52.254;7.988;2023-10-13T17:35:03;18.08;;;7.05;;
47531;SDS011;33273;52.254;7.988;2023-10-13T17:37:33;13.00;;;5.35;;
47531;SDS011;33273;52.254;7.988;2023-10-13T17:39:59;15.40;;;6.18;;
47531;SDS011;33273;52.254;7.988;2023-10-13T17:42:26;12.10;;;5.95;;
47531;SDS011;33273;52.254;7.988;2023-10-13T17:44:52;13.48;;;5.00;;
47531;SDS011;33273;52.254;7.988;2023-10-13T17:47:19;10.40;;;5.35;;
47531;SDS011;33273;52.254;7.988;2023-10-13T17:49:46;12.30;;;6.05;;
47531;SDS011;33273;52.254;7.988;2023-10-13T17:52:12;12.70;;;5.07;;
47531;SDS011;33273;52.254;7.988;2023-10-13T17:54:39;11.25;;;5.75;;
47531;SDS011;33273;52.254;7.988;2023-10-13T17:57:06;15.27;;;5.38;;
47531;SDS011;33273;52.254;7.988;2023-10-13T17:59:33;11.57;;;5.63;;
47531;SDS011;33273;52.254;7.988;2023-10-13T18:02:01;15.35;;;5.90;;
47531;SDS011;33273;52.254;7.988;2023-10-13T18:04:28;13.38;;;6.13;;
47531;SDS011;33273;52.254;7.988;2023-10-13T18:09:21;14.35;;;5.35;;
47531;SDS011;33273;52.254;7.988;2023-10-13T18:11:48;11.50;;;5.50;;
47531;SDS011;33273;52.254;7.988;2023-10-13T18:14:16;12.80;;;5.70;;
47531;SDS011;33273;52.254;7.988;2023-10-13T18:16:42;13.57;;;5.22;;
47531;SDS011;33273;52.254;7.988;2023-10-13T18:19:09;10.80;;;5.55;;
47531;SDS011;33273;52.254;7.988;2023-10-13T18:21:35;13.32;;;6.00;;
47531;SDS011;33273;52.254;7.988;2023-10-13T18:24:04;11.35;;;5.18;;
47531;SDS011;33273;52.254;7.988;2023-10-13T18:26:33;13.18;;;4.57;;
47531;SDS011;33273;52.254;7.988;2023-10-13T18:28:59;10.20;;;4.90;;
47531;SDS011;33273;52.254;7.988;2023-10-13T18:31:25;15.85;;;6.53;;
47531;SDS011;33273;52.254;7.988;2023-10-13T18:34:07;14.43;;;6.07;;
47531;SDS011;33273;52.254;7.988;2023-10-13T18:36:33;12.52;;;6.30;;
47531;SDS011;33273;52.254;7.988;2023-10-13T18:39:00;13.13;;;6.05;;
47531;SDS011;33273;52.254;7.988;2023-10-13T18:41:25;13.57;;;6.57;;
47531;SDS011;33273;52.254;7.988;2023-10-13T18:43:54;11.73;;;5.97;;
47531;SDS011;33273;52.254;7.988;2023-10-13T18:46:21;10.98;;;6.53;;
47531;SDS011;33273;52.254;7.988;2023-10-13T18:48:50;11.57;;;5.78;;
47531;SDS011;33273;52.254;7.988;2023-10-13T18:51:17;11.57;;;6.28;;
47531;SDS011;33273;52.254;7.988;2023-10-13T18:53:48;12.27;;;6.45;;
47531;SDS011;33273;52.254;7.988;2023-10-13T18:58:50;11.10;;;6.18;;
47531;SDS011;33273;52.254;7.988;2023-10-13T19:01:21;14.05;;;5.80;;
47531;SDS011;33273;52.254;7.988;2023-10-13T19:03:52;13.63;;;5.95;;
47531;SDS011;33273;52.254;7.988;2023-10-13T19:06:20;17.00;;;5.38;;
47531;SDS011;33273;52.254;7.988;2023-10-13T19:08:47;17.52;;;6.43;;
47531;SDS011;33273;52.254;7.988;2023-10-13T19:11:17;18.63;;;7.03;;
47531;SDS011;33273;52.254;7.988;2023-10-13T19:13:44;16.58;;;7.60;;
47531;SDS011;33273;52.254;7.988;2023-10-13T19:16:15;16.80;;;7.20;;
47531;SDS011;33273;52.254;7.988;2023-10-13T19:18:43;14.25;;;7.40;;
47531;SDS011;33273;52.254;7.988;2023-10-13T19:21:12;16.55;;;7.35;;
47531;SDS011;33273;52.254;7.988;2023-10-13T19:24:01;13.77;;;7.13;;
47531;SDS011;33273;52.254;7.988;2023-10-13T19:26:33;14.80;;;7.22;;
47531;SDS011;33273;52.254;7.988;2023-10-13T19:29:07;9.30;;;6.28;;
47531;SDS011;33273;52.254;7.988;2023-10-13T19:31:33;13.02;;;7.07;;
47531;SDS011;33273;52.254;7.988;2023-10-13T19:33:59;13.02;;;7.43;;
47531;SDS011;33273;52.254;7.988;2023-10-13T19:36:31;14.60;;;7.35;;
47531;SDS011;33273;52.254;7.988;2023-10-13T19:38:58;14.55;;;7.25;;
47531;SDS011;33273;52.254;7.988;2023-10-13T19:41:28;17.13;;;7.45;;
47531;SDS011;33273;52.254;7.988;2023-10-13T19:43:57;17.08;;;8.10;;
47531;SDS011;33273;52.254;7.988;2023-10-13T19:46:30;14.95;;;7.25;;
47531;SDS011;33273;52.254;7.988;2023-10-13T19:49:02;19.17;;;8.02;;
47531;SDS011;33273;52.254;7.988;2023-10-13T19:51:29;16.45;;;8.77;;
47531;SDS011;33273;52.254;7.988;2023-10-13T19:56:40;17.08;;;7.70;;
47531;SDS011;33273;52.254;7.988;2023-10-13T19:59:06;14.35;;;7.95;;
47531;SDS011;33273;52.254;7.988;2023-10-13T20:01:35;18.00;;;8.88;;
47531;SDS011;33273;52.254;7.988;2023-10-13T20:04:01;18.27;;;8.50;;
47531;SDS011;33273;52.254;7.988;2023-10-13T20:06:31;12.88;;;8.55;;
47531;SDS011;33273;52.254;7.988;2023-10-13T20:08:58;17.40;;;8.88;;
47531;SDS011;33273;52.254;7.988;2023-10-13T20:11:33;14.98;;;7.90;;
47531;SDS011;33273;52.254;7.988;2023-10-13T20:14:00;17.30;;;10.77;;
47531;SDS011;33273;52.254;7.988;2023-10-13T20:16:26;20.02;;;9.98;;
47531;SDS011;33273;52.254;7.988;2023-10-13T20:18:58;17.05;;;9.05;;
47531;SDS011;33273;52.254;7.988;2023-10-13T20:21:24;19.50;;;10.57;;
47531;SDS011;33273;52.254;7.988;2023-10-13T20:23:54;17.67;;;10.27;;
47531;SDS011;33273;52.254;7.988;2023-10-13T20:26:28;19.05;;;10.20;;
47531;SDS011;33273;52.254;7.988;2023-10-13T20:31:53;16.33;;;10.40;;
47531;SDS011;33273;52.254;7.988;2023-10-13T20:34:19;16.88;;;10.00;;
47531;SDS011;33273;52.254;7.988;2023-10-13T20:36:48;16.20;;;10.35;;
47531;SDS011;33273;52.254;7.988;2023-10-13T20:39:14;25.45;;;10.20;;
47531;SDS011;33273;52.254;7.988;2023-10-13T20:41:53;22.23;;;11.43;;
47531;SDS011;33273;52.254;7.988;2023-10-13T20:44:22;21.67;;;11.02;;
47531;SDS011;33273;52.254;7.988;2023-10-13T20:46:50;18.33;;;11.52;;
47531;SDS011;33273;52.254;7.988;2023-10-13T20:49:17;19.10;;;10.95;;
47531;SDS011;33273;52.254;7.988;2023-10-13T20:51:44;19.23;;;11.07;;
47531;SDS011;33273;52.254;7.988;2023-10-13T20:54:11;21.05;;;11.95;;
47531;SDS011;33273;52.254;7.988;2023-10-13T20:56:38;21.00;;;12.30;;
47531;SDS011;33273;52.254;7.988;2023-10-13T20:59:07;18.80;;;10.68;;
47531;SDS011;33273;52.254;7.988;2023-10-13T21:01:33;20.13;;;12.05;;
47531;SDS011;33273;52.254;7.988;2023-10-13T21:04:00;22.75;;;12.63;;
47531;SDS011;33273;52.254;7.988;2023-10-13T21:06:26;21.02;;;11.48;;
47531;SDS011;33273;52.254;7.988;2023-10-13T21:08:52;20.52;;;12.25;;
47531;SDS011;33273;52.254;7.988;2023-10-13T21:11:23;18.85;;;12.15;;
47531;SDS011;33273;52.254;7.988;2023-10-13T21:13:49;19.73;;;12.23;;
47531;SDS011;33273;52.254;7.988;2023-10-13T21:16:15;16.85;;;13.30;;
47531;SDS011;33273;52.254;7.988;2023-10-13T21:18:45;18.98;;;12.35;;
47531;SDS011;33273;52.254;7.988;2023-10-13T21:21:19;16.75;;;12.85;;
47531;SDS011;33273;52.254;7.988;2023-10-13T21:23:48;21.27;;;13.50;;
47531;SDS011;33273;52.254;7.988;2023-10-13T21:26:22;21.15;;;14.73;;
47531;SDS011;33273;52.254;7.988;2023-10-13T21:28:51;23.13;;;14.55;;
47531;SDS011;33273;52.254;7.988;2023-10-13T21:31:17;21.58;;;13.43;;
47531;SDS011;33273;52.254;7.988;2023-10-13T21:33:46;22.67;;;13.65;;
47531;SDS011;33273;52.254;7.988;2023-10-13T21:36:14;22.58;;;13.40;;
47531;SDS011;33273;52.254;7.988;2023-10-13T21:38:41;25.35;;;14.32;;
47531;SDS011;33273;52.254;7.988;2023-10-13T21:43:41;23.88;;;13.60;;
47531;SDS011;33273;52.254;7.988;2023-10-13T21:46:11;24.38;;;13.10;;
47531;SDS011;33273;52.254;7.988;2023-10-13T21:48:43;23.52;;;13.65;;
47531;SDS011;33273;52.254;7.988;2023-10-13T21:51:09;20.50;;;11.23;;
47531;SDS011;33273;52.254;7.988;2023-10-13T21:53:37;19.95;;;12.90;;
47531;SDS011;33273;52.254;7.988;2023-10-13T21:56:04;23.88;;;11.85;;
47531;SDS011;33273;52.254;7.988;2023-10-13T21:58:36;20.58;;;12.07;;
47531;SDS011;33273;52.254;7.988;2023-10-13T22:01:01;18.10;;;11.73;;
47531;SDS011;33273;52.254;7.988;2023-10-13T22:03:46;17.60;;;10.90;;
47531;SDS011;33273;52.254;7.988;2023-10-13T22:06:16;29.13;;;12.93;;
47531;SDS011;33273;52.254;7.988;2023-10-13T22:11:08;17.85;;;10.98;;
47531;SDS011;33273;52.254;7.988;2023-10-13T22:13:35;16.52;;;10.45;;
47531;SDS011;33273;52.254;7.988;2023-10-13T22:16:06;21.40;;;11.75;;
47531;SDS011;33273;52.254;7.988;2023-10-13T22:18:35;20.33;;;11.20;;
47531;SDS011;33273;52.254;7.988;2023-10-13T22:21:12;18.80;;;10.63;;
47531;SDS011;33273;52.254;7.988;2023-10-13T22:23:39;21.08;;;10.90;;
47531;SDS011;33273;52.254;7.988;2023-10-13T22:26:06;21.70;;;10.82;;
47531;SDS011;33273;52.254;7.988;2023-10-13T22:28:39;16.63;;;9.68;;
47531;SDS011;33273;52.254;7.988;2023-10-13T22:31:07;17.65;;;10.57;;
47531;SDS011;33273;52.254;7.988;2023-10-13T22:33:37;20.23;;;10.82;;
